createdAt,value
2023-01-15T00:01:44.533Z,59.91
2023-01-15T00:04:12.820Z,56.71
2023-01-15T00:06:42.600Z,55.24
2023-01-15T00:09:15.953Z,58.58
2023-01-15T00:11:44.059Z,57.13
2023-01-15T00:14:13.047Z,59.61
2023-01-15T00:16:41.710Z,58.81
2023-01-15T00:19:12.379Z,61.36
2023-01-15T00:21:40.330Z,55.63
2023-01-15T00:24:27.777Z,57.30
2023-01-15T00:27:13.689Z,55.65
2023-01-15T00:29:41.209Z,54.57
2023-01-15T00:32:09.359Z,56.44
2023-01-15T00:34:36.976Z,58.10
2023-01-15T00:37:04.741Z,59.85
2023-01-15T00:39:34.845Z,61.70
2023-01-15T00:42:03.049Z,62.03
2023-01-15T00:44:33.993Z,60.97
2023-01-15T00:47:01.605Z,59.65
2023-01-15T00:49:30.224Z,60.23
2023-01-15T00:51:57.748Z,61.56
2023-01-15T00:54:25.315Z,58.24
2023-01-15T00:56:54.003Z,55.11
2023-01-15T00:59:21.764Z,57.12
2023-01-15T01:01:49.364Z,59.58
2023-01-15T01:04:17.053Z,60.83
2023-01-15T01:06:44.667Z,58.17
2023-01-15T01:09:16.934Z,58.61
2023-01-15T01:11:44.589Z,60.85
2023-01-15T01:14:13.096Z,63.43
2023-01-15T01:16:42.539Z,61.13
2023-01-15T01:19:12.996Z,63.03
2023-01-15T01:21:42.550Z,64.14
2023-01-15T01:24:15.611Z,62.63
2023-01-15T01:26:46.732Z,61.57
2023-01-15T01:29:16.889Z,61.49
2023-01-15T01:31:44.903Z,59.50
2023-01-15T01:34:13.598Z,55.92
2023-01-15T01:36:43.632Z,57.69
2023-01-15T01:39:19.220Z,60.10
2023-01-15T01:41:48.058Z,59.92
2023-01-15T01:44:35.101Z,64.04
2023-01-15T01:47:10.141Z,60.31
2023-01-15T01:49:40.918Z,58.92
2023-01-15T01:52:16.050Z,60.39
2023-01-15T01:54:46.741Z,56.24
2023-01-15T01:57:16.221Z,58.35
2023-01-15T01:59:44.441Z,61.54
2023-01-15T02:02:12.463Z,60.67
2023-01-15T02:04:41.104Z,61.82
2023-01-15T02:07:09.280Z,61.66
2023-01-15T02:09:38.333Z,62.51
2023-01-15T02:12:34.304Z,62.63
2023-01-15T02:15:04.933Z,63.20
2023-01-15T02:17:39.294Z,63.75
2023-01-15T02:20:21.518Z,59.92
2023-01-15T02:22:52.692Z,61.17
2023-01-15T02:25:25.369Z,60.62
2023-01-15T02:28:00.291Z,56.07
2023-01-15T02:30:36.286Z,58.70
2023-01-15T02:33:08.685Z,56.80
2023-01-15T02:36:07.068Z,60.11
2023-01-15T02:38:41.951Z,59.88
2023-01-15T02:41:16.744Z,61.01
2023-01-15T02:43:51.346Z,62.11
2023-01-15T02:46:23.125Z,65.21
2023-01-15T02:48:54.803Z,65.99
2023-01-15T02:51:28.647Z,63.55
2023-01-15T02:54:02.081Z,63.60
2023-01-15T02:56:36.452Z,64.92
2023-01-15T02:59:10.506Z,63.78
2023-01-15T03:02:02.684Z,65.09
2023-01-15T03:04:40.472Z,65.24
2023-01-15T03:07:25.458Z,62.76
2023-01-15T03:09:56.930Z,63.52
2023-01-15T03:13:03.926Z,61.43
2023-01-15T03:16:05.682Z,60.54
2023-01-15T03:18:45.212Z,58.33
2023-01-15T03:21:19.747Z,59.96
2023-01-15T03:23:52.025Z,58.59
2023-01-15T03:26:20.229Z,59.76
2023-01-15T03:28:49.391Z,59.90
2023-01-15T03:31:17.046Z,60.45
2023-01-15T03:33:45.168Z,62.01
2023-01-15T03:36:18.142Z,60.62
2023-01-15T03:38:51.401Z,59.21
2023-01-15T03:41:45.186Z,59.79
2023-01-15T03:44:25.103Z,60.60
2023-01-15T03:46:56.509Z,60.91
2023-01-15T03:49:50.462Z,62.59
2023-01-15T03:52:49.564Z,60.87
2023-01-15T03:55:44.405Z,56.87
2023-01-15T03:58:43.633Z,64.67
2023-01-15T04:01:17.147Z,68.48
2023-01-15T04:03:46.613Z,71.29
2023-01-15T04:06:15.173Z,69.16
2023-01-15T04:08:46.642Z,68.99
2023-01-15T04:11:26.779Z,70.39
2023-01-15T04:14:01.095Z,71.03
2023-01-15T04:16:41.702Z,67.83
2023-01-15T04:19:09.823Z,68.62
2023-01-15T04:21:40.462Z,66.25
2023-01-15T04:24:08.627Z,61.59
2023-01-15T04:26:36.309Z,63.76
2023-01-15T04:29:03.719Z,64.16
2023-01-15T04:31:33.833Z,63.85
2023-01-15T04:34:01.461Z,61.15
2023-01-15T04:36:29.628Z,61.20
2023-01-15T04:38:59.517Z,60.43
2023-01-15T04:41:45.354Z,60.57
2023-01-15T04:44:12.872Z,61.45
2023-01-15T04:46:45.030Z,59.68
2023-01-15T04:49:16.027Z,61.25
2023-01-15T04:51:44.998Z,66.70
2023-01-15T04:54:14.607Z,67.20
2023-01-15T04:56:45.330Z,68.83
2023-01-15T04:59:13.362Z,72.03
2023-01-15T05:01:48.529Z,70.40
2023-01-15T05:04:22.422Z,70.36
2023-01-15T05:06:50.061Z,71.67
2023-01-15T05:09:17.716Z,67.99
2023-01-15T05:11:45.209Z,65.39
2023-01-15T05:14:12.747Z,62.42
2023-01-15T05:16:40.203Z,61.82
2023-01-15T05:19:08.398Z,62.08
2023-01-15T05:21:40.704Z,59.25
2023-01-15T05:24:09.415Z,57.34
2023-01-15T05:26:37.527Z,57.81
2023-01-15T05:29:05.344Z,60.50
2023-01-15T05:31:36.023Z,60.33
2023-01-15T05:34:03.591Z,61.54
2023-01-15T05:36:32.462Z,61.54
2023-01-15T05:39:02.496Z,59.84
2023-01-15T05:41:49.376Z,61.40
2023-01-15T05:44:18.887Z,61.59
2023-01-15T05:46:47.101Z,60.93
2023-01-15T05:49:18.760Z,63.07
2023-01-15T05:51:46.857Z,62.09
2023-01-15T05:54:23.235Z,60.53
2023-01-15T05:56:51.525Z,59.79
2023-01-15T05:59:21.649Z,59.40
2023-01-15T06:01:49.315Z,58.93
2023-01-15T06:04:25.027Z,61.23
2023-01-15T06:06:54.386Z,60.83
2023-01-15T06:09:23.368Z,59.31
2023-01-15T06:11:51.371Z,60.03
2023-01-15T06:14:18.932Z,58.09
2023-01-15T06:16:46.982Z,56.41
2023-01-15T06:19:17.032Z,58.59
2023-01-15T06:21:44.979Z,61.77
2023-01-15T06:24:15.927Z,62.68
2023-01-15T06:26:43.425Z,62.69
2023-01-15T06:29:10.924Z,58.08
2023-01-15T06:31:38.456Z,58.00
2023-01-15T06:34:06.070Z,53.43
2023-01-15T06:36:33.639Z,56.32
2023-01-15T06:39:01.208Z,59.41
2023-01-15T06:41:47.300Z,58.72
2023-01-15T06:44:37.162Z,60.26
2023-01-15T06:47:23.411Z,58.75
2023-01-15T06:49:57.688Z,57.14
2023-01-15T06:52:27.662Z,56.75
2023-01-15T06:54:55.671Z,57.83
2023-01-15T06:57:23.295Z,54.65
2023-01-15T06:59:51.359Z,53.15
2023-01-15T07:02:19.894Z,54.41
2023-01-15T07:04:48.289Z,58.65
2023-01-15T07:07:17.903Z,54.71
2023-01-15T07:09:45.495Z,48.86
2023-01-15T07:12:13.177Z,50.52
2023-01-15T07:14:40.746Z,51.51
2023-01-15T07:17:08.408Z,51.15
2023-01-15T07:19:36.295Z,51.46
2023-01-15T07:22:03.992Z,53.91
2023-01-15T07:24:31.519Z,54.03
2023-01-15T07:26:59.212Z,54.65
2023-01-15T07:29:26.809Z,55.66
2023-01-15T07:31:54.560Z,52.07
2023-01-15T07:34:22.180Z,56.26
2023-01-15T07:36:49.813Z,58.78
2023-01-15T07:39:17.509Z,57.13
2023-01-15T07:42:03.216Z,58.01
2023-01-15T07:44:53.742Z,54.28
2023-01-15T07:47:42.973Z,59.27
2023-01-15T07:50:22.851Z,58.51
2023-01-15T07:52:53.030Z,59.81
2023-01-15T07:55:21.426Z,57.70
2023-01-15T07:57:48.928Z,55.21
2023-01-15T08:00:21.560Z,53.63
2023-01-15T08:02:51.127Z,55.94
2023-01-15T08:05:19.245Z,52.92
2023-01-15T08:07:47.598Z,50.85
2023-01-15T08:10:15.280Z,51.07
2023-01-15T08:13:01.114Z,51.85
2023-01-15T08:15:33.911Z,51.02
2023-01-15T08:18:01.428Z,50.61
2023-01-15T08:20:29.108Z,53.80
2023-01-15T08:22:56.932Z,54.41
2023-01-15T08:25:25.475Z,52.99
2023-01-15T08:27:53.966Z,58.11
2023-01-15T08:30:24.119Z,57.35
2023-01-15T08:32:52.664Z,54.35
2023-01-15T08:35:20.359Z,52.52
2023-01-15T08:37:47.899Z,55.80
2023-01-15T08:40:15.687Z,59.04
2023-01-15T08:42:44.670Z,56.88
2023-01-15T08:45:12.464Z,53.55
2023-01-15T08:47:39.972Z,56.52
2023-01-15T08:50:08.946Z,58.14
2023-01-15T08:52:38.346Z,54.64
2023-01-15T08:55:06.551Z,56.27
2023-01-15T08:57:34.711Z,57.67
2023-01-15T09:00:02.395Z,54.73
2023-01-15T09:02:32.367Z,51.10
2023-01-15T09:05:00.066Z,52.78
2023-01-15T09:07:27.563Z,50.66
2023-01-15T09:09:55.088Z,52.86
2023-01-15T09:12:25.115Z,54.33
2023-01-15T09:14:58.069Z,56.26
2023-01-15T09:17:33.225Z,55.15
2023-01-15T09:20:00.862Z,53.27
2023-01-15T09:22:31.237Z,56.03
2023-01-15T09:24:59.100Z,57.85
2023-01-15T09:27:29.964Z,57.73
2023-01-15T09:29:57.737Z,49.21
2023-01-15T09:32:25.292Z,50.51
2023-01-15T09:34:52.980Z,54.57
2023-01-15T09:37:20.487Z,48.07
2023-01-15T09:39:48.224Z,52.53
2023-01-15T09:42:27.530Z,54.76
2023-01-15T09:45:24.379Z,53.98
2023-01-15T09:48:19.580Z,54.38
2023-01-15T09:50:50.186Z,54.64
2023-01-15T09:53:36.659Z,54.54
2023-01-15T09:56:05.189Z,51.80
2023-01-15T09:58:36.378Z,47.58
2023-01-15T10:01:04.835Z,49.40
2023-01-15T10:03:44.159Z,48.07
2023-01-15T10:06:17.513Z,47.38
2023-01-15T10:08:50.878Z,52.32
2023-01-15T10:11:19.046Z,52.66
2023-01-15T10:13:55.207Z,52.81
2023-01-15T10:16:29.471Z,50.80
2023-01-15T10:19:02.513Z,52.23
2023-01-15T10:21:52.040Z,53.55
2023-01-15T10:24:25.447Z,54.03
2023-01-15T10:26:58.049Z,54.13
2023-01-15T10:29:47.076Z,54.70
2023-01-15T10:32:14.626Z,48.02
2023-01-15T10:34:54.344Z,50.92
2023-01-15T10:37:42.051Z,54.77
2023-01-15T10:40:34.729Z,47.60
2023-01-15T10:43:20.600Z,50.55
2023-01-15T10:45:53.529Z,49.42
2023-01-15T10:48:42.767Z,49.21
2023-01-15T10:51:21.143Z,52.89
2023-01-15T10:53:54.567Z,51.43
2023-01-15T10:56:34.042Z,53.26
2023-01-15T10:59:22.557Z,48.46
2023-01-15T11:01:55.629Z,55.58
2023-01-15T11:04:26.114Z,49.12
2023-01-15T11:06:53.779Z,52.90
2023-01-15T11:09:24.318Z,48.39
2023-01-15T11:12:00.674Z,52.29
2023-01-15T11:14:52.622Z,49.28
2023-01-15T11:17:38.918Z,47.20
2023-01-15T11:20:21.080Z,51.49
2023-01-15T11:22:49.405Z,48.04
2023-01-15T11:25:30.324Z,49.66
2023-01-15T11:28:00.255Z,54.12
2023-01-15T11:30:34.099Z,45.06
2023-01-15T11:33:06.770Z,45.73
2023-01-15T11:35:35.051Z,46.50
2023-01-15T11:38:07.376Z,49.67
2023-01-15T11:40:34.989Z,48.41
2023-01-15T11:43:20.758Z,45.60
2023-01-15T11:46:11.561Z,50.37
2023-01-15T11:49:06.141Z,46.92
2023-01-15T11:51:43.052Z,46.57
2023-01-15T11:54:13.797Z,47.97
2023-01-15T11:56:43.882Z,48.21
2023-01-15T11:59:15.220Z,45.36
2023-01-15T12:02:04.739Z,46.81
2023-01-15T12:04:47.100Z,46.49
2023-01-15T12:07:14.867Z,49.53
2023-01-15T12:10:14.303Z,46.96
2023-01-15T12:13:19.622Z,48.26
2023-01-15T12:15:55.511Z,45.79
2023-01-15T12:18:34.892Z,46.32
2023-01-15T12:21:18.275Z,44.87
2023-01-15T12:24:16.548Z,43.36
2023-01-15T12:27:02.364Z,45.62
2023-01-15T12:29:39.846Z,49.96
2023-01-15T12:32:35.587Z,53.37
2023-01-15T12:35:05.885Z,50.19
2023-01-15T12:37:47.594Z,48.01
2023-01-15T12:40:15.141Z,45.93
2023-01-15T12:43:04.576Z,47.04
2023-01-15T12:45:37.724Z,46.96
2023-01-15T12:48:26.664Z,47.07
2023-01-15T12:50:58.123Z,52.22
2023-01-15T12:53:44.155Z,49.89
2023-01-15T12:56:15.682Z,50.83
2023-01-15T12:59:12.264Z,49.18
2023-01-15T13:01:42.906Z,47.92
2023-01-15T13:04:33.144Z,46.92
2023-01-15T13:07:15.022Z,45.71
2023-01-15T13:09:50.959Z,46.62
2023-01-15T13:12:19.112Z,48.48
2023-01-15T13:14:47.166Z,42.93
2023-01-15T13:17:29.706Z,44.86
2023-01-15T13:20:35.723Z,50.07
2023-01-15T13:23:24.990Z,47.91
2023-01-15T13:26:14.105Z,46.04
2023-01-15T13:29:13.127Z,48.29
2023-01-15T13:32:54.843Z,47.33
2023-01-15T13:35:52.426Z,46.96
2023-01-15T13:38:25.124Z,44.70
2023-01-15T13:40:56.263Z,47.16
2023-01-15T13:43:39.693Z,47.65
2023-01-15T13:46:09.550Z,45.43
2023-01-15T13:48:45.607Z,42.08
2023-01-15T13:51:25.002Z,46.95
2023-01-15T13:53:52.766Z,43.90
2023-01-15T13:56:34.076Z,42.41
2023-01-15T13:59:04.939Z,42.21
2023-01-15T14:01:37.691Z,42.64
2023-01-15T14:04:12.860Z,41.12
2023-01-15T14:06:44.554Z,44.18
2023-01-15T14:09:17.927Z,44.81
2023-01-15T14:12:10.163Z,47.11
2023-01-15T14:14:52.928Z,40.95
2023-01-15T14:17:57.750Z,39.96
2023-01-15T14:20:46.531Z,40.51
2023-01-15T14:23:38.224Z,42.67
2023-01-15T14:26:05.704Z,39.77
2023-01-15T14:29:01.512Z,37.97
2023-01-15T14:31:44.544Z,40.58
2023-01-15T14:34:20.921Z,47.06
2023-01-15T14:36:54.502Z,42.96
2023-01-15T14:40:06.544Z,40.70
2023-01-15T14:42:55.017Z,45.54
2023-01-15T14:45:28.687Z,41.71
2023-01-15T14:47:58.983Z,40.83
2023-01-15T14:50:40.904Z,46.32
2023-01-15T14:53:11.471Z,40.35
2023-01-15T14:55:51.503Z,46.39
2023-01-15T14:58:43.883Z,43.16
2023-01-15T15:01:33.109Z,39.27
2023-01-15T15:04:25.014Z,41.93
2023-01-15T15:06:57.213Z,46.34
2023-01-15T15:09:42.409Z,46.11
2023-01-15T15:12:39.942Z,43.96
2023-01-15T15:15:25.832Z,44.63
2023-01-15T15:18:21.197Z,48.32
2023-01-15T15:21:07.506Z,50.40
2023-01-15T15:23:41.957Z,46.73
2023-01-15T15:26:38.261Z,43.11
2023-01-15T15:29:13.095Z,43.34
2023-01-15T15:31:46.800Z,42.12
2023-01-15T15:34:24.071Z,43.39
2023-01-15T15:36:51.757Z,36.04
2023-01-15T15:39:46.934Z,42.71
2023-01-15T15:42:50.062Z,38.55
2023-01-15T15:45:39.258Z,41.44
2023-01-15T15:48:53.576Z,36.71
2023-01-15T15:51:27.923Z,42.72
2023-01-15T15:54:08.552Z,38.12
2023-01-15T15:56:36.490Z,41.83
2023-01-15T15:59:05.684Z,41.55
2023-01-15T16:01:42.357Z,40.71
2023-01-15T16:04:18.165Z,40.12
2023-01-15T16:06:46.248Z,45.86
2023-01-15T16:09:20.126Z,40.47
2023-01-15T16:11:48.778Z,41.96
2023-01-15T16:14:17.535Z,37.08
2023-01-15T16:16:47.259Z,39.54
2023-01-15T16:19:20.119Z,38.49
2023-01-15T16:21:48.598Z,38.63
2023-01-15T16:24:28.040Z,42.92
2023-01-15T16:27:05.889Z,36.74
2023-01-15T16:29:35.288Z,37.57
2023-01-15T16:32:11.491Z,40.07
2023-01-15T16:34:40.143Z,38.64
2023-01-15T16:37:25.649Z,41.13
2023-01-15T16:39:53.950Z,43.09
2023-01-15T16:42:34.271Z,40.19
2023-01-15T16:45:22.127Z,37.06
2023-01-15T16:48:24.737Z,42.25
2023-01-15T16:50:52.362Z,42.81
2023-01-15T16:53:52.516Z,40.04
2023-01-15T16:56:38.142Z,47.41
2023-01-15T16:59:16.542Z,41.35
2023-01-15T17:01:47.762Z,45.76
2023-01-15T17:04:26.103Z,39.21
2023-01-15T17:07:17.910Z,44.12
2023-01-15T17:09:53.736Z,42.76
2023-01-15T17:12:27.086Z,42.02
2023-01-15T17:14:54.850Z,40.44
2023-01-15T17:17:29.130Z,36.92
2023-01-15T17:19:57.546Z,36.84
2023-01-15T17:22:32.899Z,40.55
2023-01-15T17:25:01.791Z,40.42
2023-01-15T17:27:31.154Z,36.31
2023-01-15T17:29:58.676Z,40.55
2023-01-15T17:32:31.858Z,35.47
2023-01-15T17:34:59.407Z,42.73
2023-01-15T17:37:26.996Z,35.79
2023-01-15T17:39:54.565Z,34.88
2023-01-15T17:42:22.290Z,37.48
2023-01-15T17:44:49.828Z,39.22
2023-01-15T17:47:17.459Z,41.99
2023-01-15T17:49:45.167Z,36.32
2023-01-15T17:52:20.121Z,44.31
2023-01-15T17:55:06.548Z,40.05
2023-01-15T17:57:52.290Z,34.97
2023-01-15T18:00:38.470Z,39.53
2023-01-15T18:03:24.530Z,35.18
2023-01-15T18:05:52.949Z,39.30
2023-01-15T18:08:20.529Z,40.74
2023-01-15T18:10:48.176Z,42.26
2023-01-15T18:13:15.737Z,41.95
2023-01-15T18:15:43.331Z,45.29
2023-01-15T18:18:11.874Z,39.14
2023-01-15T18:20:39.541Z,41.20
2023-01-15T18:23:07.326Z,46.74
2023-01-15T18:25:35.957Z,39.01
2023-01-15T18:28:03.781Z,35.20
2023-01-15T18:30:34.417Z,32.71
2023-01-15T18:33:02.857Z,34.54
2023-01-15T18:35:30.643Z,40.39
2023-01-15T18:37:58.460Z,37.07
2023-01-15T18:40:30.999Z,34.98
2023-01-15T18:43:17.409Z,33.05
2023-01-15T18:46:07.228Z,36.09
2023-01-15T18:48:34.739Z,33.04
2023-01-15T18:51:10.302Z,39.10
2023-01-15T18:53:37.973Z,33.06
2023-01-15T18:56:11.134Z,38.03
2023-01-15T18:58:38.673Z,32.75
2023-01-15T19:01:09.572Z,37.07
2023-01-15T19:03:37.135Z,32.48
2023-01-15T19:06:12.547Z,38.04
2023-01-15T19:08:40.069Z,38.28
2023-01-15T19:11:13.085Z,32.92
2023-01-15T19:13:40.731Z,35.47
2023-01-15T19:16:27.116Z,34.72
2023-01-15T19:18:54.867Z,36.85
2023-01-15T19:21:23.074Z,36.03
2023-01-15T19:23:52.521Z,42.10
2023-01-15T19:26:20.077Z,33.11
2023-01-15T19:28:47.590Z,33.88
2023-01-15T19:31:35.399Z,39.71
2023-01-15T19:34:32.121Z,33.43
2023-01-15T19:36:55.505Z,35.33
2023-01-15T19:39:23.114Z,38.03
2023-01-15T19:42:08.840Z,35.19
2023-01-15T19:44:55.223Z,38.70
2023-01-15T19:47:52.659Z,43.32
2023-01-15T19:50:24.180Z,37.37
2023-01-15T19:52:54.418Z,33.37
2023-01-15T19:55:23.914Z,48.81
2023-01-15T19:58:00.355Z,52.50
2023-01-15T20:00:29.036Z,54.76
2023-01-15T20:02:57.754Z,58.24
2023-01-15T20:05:27.591Z,60.05
2023-01-15T20:07:55.250Z,60.83
2023-01-15T20:10:25.318Z,55.92
2023-01-15T20:13:11.537Z,52.19
2023-01-15T20:15:41.174Z,54.81
2023-01-15T20:18:08.973Z,49.35
2023-01-15T20:20:38.237Z,51.99
2023-01-15T20:23:06.489Z,53.37
2023-01-15T20:25:34.119Z,45.33
2023-01-15T20:28:01.657Z,43.10
2023-01-15T20:30:29.572Z,46.57
2023-01-15T20:33:00.608Z,45.95
2023-01-15T20:35:33.895Z,51.96
2023-01-15T20:38:01.726Z,53.82
2023-01-15T20:40:29.932Z,50.55
2023-01-15T20:43:15.771Z,48.60
2023-01-15T20:45:43.410Z,47.82
2023-01-15T20:48:13.561Z,42.86
2023-01-15T20:51:01.021Z,44.93
2023-01-15T20:53:34.013Z,40.20
2023-01-15T20:56:11.355Z,40.73
2023-01-15T20:58:39.008Z,37.87
2023-01-15T21:01:09.341Z,37.79
2023-01-15T21:03:40.337Z,37.86
2023-01-15T21:06:08.952Z,39.61
2023-01-15T21:08:36.836Z,37.16
2023-01-15T21:11:04.590Z,41.68
2023-01-15T21:13:32.193Z,39.79
2023-01-15T21:16:02.761Z,45.38
2023-01-15T21:18:31.964Z,41.00
2023-01-15T21:20:59.475Z,43.03
2023-01-15T21:23:27.883Z,42.96
2023-01-15T21:26:02.182Z,42.65
2023-01-15T21:28:30.181Z,45.50
2023-01-15T21:30:58.812Z,40.28
2023-01-15T21:33:26.502Z,44.07
2023-01-15T21:35:54.096Z,39.39
2023-01-15T21:38:21.571Z,38.44
2023-01-15T21:40:49.086Z,43.63
2023-01-15T21:43:34.822Z,45.29
2023-01-15T21:46:06.471Z,41.23
2023-01-15T21:48:34.272Z,39.44
2023-01-15T21:51:06.423Z,38.66
2023-01-15T21:53:33.994Z,39.98
2023-01-15T21:56:01.457Z,36.08
2023-01-15T21:58:29.015Z,37.47
2023-01-15T22:00:57.521Z,38.31
2023-01-15T22:03:25.022Z,40.07
2023-01-15T22:05:52.524Z,36.97
2023-01-15T22:08:20.009Z,41.55
2023-01-15T22:10:47.895Z,47.12
2023-01-15T22:13:15.413Z,39.27
2023-01-15T22:15:42.909Z,37.44
2023-01-15T22:18:10.506Z,43.02
2023-01-15T22:20:38.043Z,36.03
2023-01-15T22:23:05.560Z,37.54
2023-01-15T22:25:34.415Z,36.55
2023-01-15T22:28:01.909Z,35.76
2023-01-15T22:30:29.384Z,38.32
2023-01-15T22:32:56.873Z,40.25
2023-01-15T22:35:25.199Z,38.64
2023-01-15T22:37:52.615Z,41.48
2023-01-15T22:40:20.106Z,36.82
2023-01-15T22:42:47.591Z,38.30
2023-01-15T22:45:15.139Z,37.13
2023-01-15T22:47:42.667Z,42.59
2023-01-15T22:50:10.903Z,37.37
2023-01-15T22:52:39.456Z,37.59
2023-01-15T22:55:08.114Z,41.28
2023-01-15T22:57:36.573Z,38.67
2023-01-15T23:00:06.460Z,40.81
2023-01-15T23:02:52.398Z,39.44
2023-01-15T23:05:19.837Z,39.36
2023-01-15T23:07:47.328Z,40.25
2023-01-15T23:10:15.083Z,40.08
2023-01-15T23:12:43.498Z,38.98
2023-01-15T23:15:13.633Z,46.93
2023-01-15T23:17:42.191Z,41.20
2023-01-15T23:20:11.361Z,41.39
2023-01-15T23:22:39.034Z,44.39
2023-01-15T23:25:09.193Z,43.91
2023-01-15T23:27:36.830Z,41.75
2023-01-15T23:30:05.123Z,41.33
2023-01-15T23:32:32.663Z,40.19
2023-01-15T23:35:00.146Z,40.35
2023-01-15T23:37:27.623Z,40.37
2023-01-15T23:39:55.082Z,34.91
2023-01-15T23:42:43.768Z,38.34
2023-01-15T23:45:30.432Z,40.01
2023-01-15T23:47:57.943Z,35.19
2023-01-15T23:50:25.518Z,39.04
2023-01-15T23:52:53.040Z,39.66
2023-01-15T23:55:20.532Z,34.63
2023-01-15T23:57:48.029Z,38.35
